createdAt,value
2022-10-31T00:00:58.012Z,5.38
2022-10-31T00:05:51.466Z,5.53
2022-10-31T00:08:18.767Z,4.63
2022-10-31T00:10:46.911Z,5.13
2022-10-31T00:13:15.080Z,5.07
2022-10-31T00:15:42.283Z,5.13
2022-10-31T00:18:10.545Z,6.40
2022-10-31T00:20:38.144Z,4.60
2022-10-31T00:23:06.187Z,4.57
2022-10-31T00:25:38.220Z,4.65
2022-10-31T00:28:07.047Z,4.78
2022-10-31T00:30:34.315Z,3.90
2022-10-31T00:33:03.986Z,4.70
2022-10-31T00:35:32.434Z,4.20
2022-10-31T00:37:59.327Z,3.50
2022-10-31T00:40:26.076Z,3.58
2022-10-31T00:42:54.076Z,3.63
2022-10-31T00:45:20.884Z,3.38
2022-10-31T00:47:48.070Z,3.75
2022-10-31T00:50:14.962Z,3.28
2022-10-31T00:52:41.740Z,2.70
2022-10-31T00:55:08.586Z,3.42
2022-10-31T00:57:35.317Z,3.05
2022-10-31T01:00:04.352Z,3.67
2022-10-31T01:02:31.247Z,3.45
2022-10-31T01:04:58.046Z,3.50
2022-10-31T01:07:24.747Z,2.70
2022-10-31T01:09:51.425Z,3.22
2022-10-31T01:12:20.036Z,3.10
2022-10-31T01:14:46.737Z,3.35
2022-10-31T01:17:14.320Z,3.55
2022-10-31T01:19:41.168Z,4.75
2022-10-31T01:22:07.988Z,3.80
2022-10-31T01:24:34.853Z,3.95
2022-10-31T01:27:02.830Z,5.43
2022-10-31T01:29:33.439Z,3.92
2022-10-31T01:32:00.220Z,5.07
2022-10-31T01:34:26.915Z,4.30
2022-10-31T01:36:53.587Z,4.50
2022-10-31T01:39:22.080Z,4.25
2022-10-31T01:41:51.986Z,3.40
2022-10-31T01:44:18.636Z,3.50
2022-10-31T01:46:51.691Z,3.80
2022-10-31T01:49:26.150Z,3.28
2022-10-31T01:51:59.418Z,3.10
2022-10-31T01:54:33.076Z,3.83
2022-10-31T01:57:00.321Z,3.30
2022-10-31T01:59:31.279Z,3.33
2022-10-31T02:01:58.072Z,2.90
2022-10-31T02:04:26.282Z,3.58
2022-10-31T02:07:01.845Z,3.00
2022-10-31T02:09:31.731Z,3.53
2022-10-31T02:12:00.251Z,4.85
2022-10-31T02:14:31.243Z,3.83
2022-10-31T02:16:58.615Z,3.40
2022-10-31T02:22:36.389Z,2.40
2022-10-31T02:25:06.778Z,2.50
2022-10-31T02:27:40.620Z,2.67
2022-10-31T02:30:16.955Z,2.58
2022-10-31T02:33:06.324Z,2.10
2022-10-31T02:36:04.810Z,3.35
2022-10-31T02:39:01.341Z,2.77
2022-10-31T02:41:55.307Z,2.40
2022-10-31T02:44:31.262Z,2.58
2022-10-31T02:47:07.307Z,3.37
2022-10-31T02:49:49.210Z,2.67
2022-10-31T02:52:25.955Z,3.05
2022-10-31T02:54:53.018Z,3.47
2022-10-31T02:57:40.856Z,2.88
2022-10-31T03:00:10.004Z,2.88
2022-10-31T03:03:01.214Z,2.90
2022-10-31T03:05:57.054Z,3.17
2022-10-31T03:08:33.118Z,2.63
2022-10-31T03:11:06.009Z,2.60
2022-10-31T03:13:57.927Z,2.47
2022-10-31T03:16:47.597Z,2.47
2022-10-31T03:19:40.075Z,2.38
2022-10-31T03:22:24.566Z,2.53
2022-10-31T03:24:54.540Z,2.55
2022-10-31T03:27:35.612Z,2.30
2022-10-31T03:30:06.420Z,2.65
2022-10-31T03:32:50.539Z,2.65
2022-10-31T03:35:20.554Z,2.60
2022-10-31T03:37:49.570Z,2.50
2022-10-31T03:40:19.292Z,3.17
2022-10-31T03:42:57.281Z,3.10
2022-10-31T03:45:31.991Z,3.22
2022-10-31T03:48:00.674Z,2.20
2022-10-31T03:50:35.452Z,2.35
2022-10-31T03:53:08.742Z,2.25
2022-10-31T03:55:49.379Z,2.53
2022-10-31T03:58:25.048Z,2.22
2022-10-31T04:00:56.683Z,2.25
2022-10-31T04:03:30.724Z,2.28
2022-10-31T04:06:08.214Z,3.33
2022-10-31T04:08:42.902Z,2.72
2022-10-31T04:11:16.175Z,3.20
2022-10-31T04:13:48.021Z,2.83
2022-10-31T04:16:22.838Z,2.95
2022-10-31T04:18:49.681Z,3.70
2022-10-31T04:21:17.724Z,2.80
2022-10-31T04:26:19.067Z,1.98
2022-10-31T04:28:47.033Z,2.65
2022-10-31T04:31:14.630Z,2.83
2022-10-31T04:33:43.433Z,2.45
2022-10-31T04:36:10.422Z,3.10
2022-10-31T04:38:37.591Z,3.25
2022-10-31T04:41:11.896Z,3.00
2022-10-31T04:43:59.037Z,5.15
2022-10-31T04:46:27.548Z,5.47
2022-10-31T04:48:55.571Z,6.30
2022-10-31T04:51:22.345Z,4.25
2022-10-31T04:53:49.153Z,3.45
2022-10-31T04:56:28.105Z,3.78
2022-10-31T04:59:05.229Z,4.22
2022-10-31T05:01:44.714Z,3.30
2022-10-31T05:04:11.949Z,3.30
2022-10-31T05:06:38.655Z,4.07
2022-10-31T05:09:05.476Z,4.22
2022-10-31T05:11:32.172Z,4.22
2022-10-31T05:14:09.632Z,3.38
2022-10-31T05:16:59.292Z,3.90
2022-10-31T05:19:46.221Z,2.97
2022-10-31T05:22:31.409Z,3.33
2022-10-31T05:24:58.231Z,2.70
2022-10-31T05:27:25.088Z,3.20
2022-10-31T05:29:52.147Z,3.40
2022-10-31T05:32:19.016Z,4.03
2022-10-31T05:35:21.288Z,4.75
2022-10-31T05:38:12.384Z,4.28
2022-10-31T05:40:39.181Z,4.47
2022-10-31T05:43:06.140Z,3.45
2022-10-31T05:45:32.832Z,3.72
2022-10-31T05:48:04.877Z,3.45
2022-10-31T05:51:01.300Z,3.13
2022-10-31T05:53:28.012Z,2.90
2022-10-31T05:55:55.500Z,3.00
2022-10-31T05:58:23.049Z,2.97
2022-10-31T06:00:58.377Z,2.80
2022-10-31T06:03:25.187Z,4.20
2022-10-31T06:05:58.862Z,3.67
2022-10-31T06:08:30.659Z,3.75
2022-10-31T06:11:01.279Z,3.53
2022-10-31T06:13:50.780Z,3.47
2022-10-31T06:16:23.438Z,4.28
2022-10-31T06:18:51.277Z,4.93
2022-10-31T06:21:19.240Z,4.78
2022-10-31T06:23:48.609Z,4.68
2022-10-31T06:26:39.195Z,5.03
2022-10-31T06:29:05.935Z,4.47
2022-10-31T06:31:57.132Z,4.88
2022-10-31T06:34:24.005Z,5.03
2022-10-31T06:36:50.715Z,4.40
2022-10-31T06:39:21.025Z,3.60
2022-10-31T06:41:50.817Z,3.40
2022-10-31T06:44:20.415Z,3.20
2022-10-31T06:46:59.535Z,4.93
2022-10-31T06:49:50.928Z,4.53
2022-10-31T06:52:21.187Z,4.78
2022-10-31T06:54:47.878Z,4.82
2022-10-31T06:59:42.029Z,5.70
2022-10-31T07:02:27.444Z,5.30
2022-10-31T07:04:57.315Z,5.90
2022-10-31T07:07:24.299Z,5.40
2022-10-31T07:09:51.532Z,5.80
2022-10-31T07:12:22.729Z,5.70
2022-10-31T07:14:56.750Z,5.53
2022-10-31T07:17:29.681Z,5.03
2022-10-31T07:19:58.637Z,5.45
2022-10-31T07:22:25.392Z,5.60
2022-10-31T07:24:52.179Z,5.30
2022-10-31T07:27:42.972Z,5.00
2022-10-31T07:30:13.378Z,5.78
2022-10-31T07:32:48.453Z,5.60
2022-10-31T07:35:19.728Z,5.22
2022-10-31T07:37:48.741Z,5.20
2022-10-31T07:40:17.139Z,4.72
2022-10-31T07:42:48.288Z,5.10
2022-10-31T07:45:34.936Z,5.18
2022-10-31T07:48:33.936Z,4.88
2022-10-31T07:51:20.734Z,5.55
2022-10-31T07:54:16.900Z,5.00
2022-10-31T07:56:43.579Z,4.93
2022-10-31T07:59:10.337Z,4.35
2022-10-31T08:01:37.039Z,5.15
2022-10-31T08:04:23.672Z,5.20
2022-10-31T08:07:09.042Z,3.95
2022-10-31T08:09:38.004Z,4.00
2022-10-31T08:12:15.738Z,3.80
2022-10-31T08:14:42.915Z,4.10
2022-10-31T08:17:09.739Z,4.80
2022-10-31T08:19:45.434Z,4.20
2022-10-31T08:22:14.943Z,4.72
2022-10-31T08:24:41.670Z,4.63
2022-10-31T08:27:08.464Z,4.10
2022-10-31T08:29:35.178Z,4.50
2022-10-31T08:32:02.021Z,4.15
2022-10-31T08:34:47.432Z,4.53
2022-10-31T08:37:32.793Z,4.18
2022-10-31T08:39:59.712Z,4.43
2022-10-31T08:42:26.423Z,4.63
2022-10-31T08:44:53.108Z,4.22
2022-10-31T08:47:22.118Z,3.80
2022-10-31T08:49:48.983Z,4.10
2022-10-31T08:52:16.967Z,4.10
2022-10-31T08:54:46.659Z,3.50
2022-10-31T08:57:48.493Z,3.88
2022-10-31T09:00:15.408Z,4.30
2022-10-31T09:03:01.705Z,3.55
2022-10-31T09:05:31.652Z,4.00
2022-10-31T09:08:00.217Z,3.20
2022-10-31T09:10:29.270Z,4.30
2022-10-31T09:13:00.685Z,3.50
2022-10-31T09:15:28.489Z,3.70
2022-10-31T09:18:21.533Z,3.65
2022-10-31T09:21:01.355Z,3.92
2022-10-31T09:23:30.784Z,3.78
2022-10-31T09:26:01.341Z,3.22
2022-10-31T09:28:32.742Z,3.63
2022-10-31T09:31:05.791Z,3.92
2022-10-31T09:33:55.969Z,3.33
2022-10-31T09:36:47.007Z,3.60
2022-10-31T09:39:18.807Z,3.90
2022-10-31T09:42:16.874Z,3.03
2022-10-31T09:44:56.797Z,3.42
2022-10-31T09:47:43.638Z,3.50
2022-10-31T09:50:48.424Z,3.38
2022-10-31T09:53:52.955Z,2.85
2022-10-31T09:56:25.701Z,2.97
2022-10-31T09:59:00.597Z,3.47
2022-10-31T10:01:39.903Z,3.28
2022-10-31T10:04:34.750Z,3.28
2022-10-31T10:07:22.471Z,2.85
2022-10-31T10:10:26.894Z,3.17
2022-10-31T10:13:23.532Z,3.00
2022-10-31T10:16:34.464Z,3.15
2022-10-31T10:19:24.379Z,3.60
2022-10-31T10:22:13.036Z,3.20
2022-10-31T10:24:56.545Z,3.72
2022-10-31T10:28:13.902Z,3.20
2022-10-31T10:30:45.296Z,3.45
2022-10-31T10:33:16.104Z,3.35
2022-10-31T10:35:54.255Z,2.75
2022-10-31T10:38:41.400Z,3.20
2022-10-31T10:41:17.421Z,2.60
2022-10-31T10:43:44.443Z,3.35
2022-10-31T10:46:37.199Z,3.22
2022-10-31T10:49:29.980Z,3.40
2022-10-31T10:52:46.016Z,3.03
2022-10-31T10:55:19.848Z,3.28
2022-10-31T10:57:51.091Z,3.05
2022-10-31T11:00:22.052Z,3.13
2022-10-31T11:02:49.420Z,3.00
2022-10-31T11:05:21.477Z,3.58
2022-10-31T11:07:48.133Z,2.72
2022-10-31T11:10:16.908Z,2.95
2022-10-31T11:13:03.456Z,3.10
2022-10-31T11:15:34.724Z,5.25
2022-10-31T11:18:02.254Z,2.92
2022-10-31T11:20:37.054Z,3.70
2022-10-31T11:23:19.024Z,2.83
2022-10-31T11:26:00.698Z,2.95
2022-10-31T11:28:33.330Z,3.90
2022-10-31T11:31:01.789Z,3.15
2022-10-31T11:33:38.600Z,3.45
2022-10-31T11:36:51.102Z,3.50
2022-10-31T11:39:22.170Z,3.10
2022-10-31T11:41:50.423Z,3.17
2022-10-31T11:44:21.916Z,2.78
2022-10-31T11:46:50.267Z,3.00
2022-10-31T11:49:30.410Z,2.75
2022-10-31T11:51:59.929Z,2.58
2022-10-31T11:54:30.061Z,3.22
2022-10-31T11:56:57.309Z,3.10
2022-10-31T12:01:52.860Z,2.83
2022-10-31T12:04:24.022Z,3.35
2022-10-31T12:06:52.427Z,2.72
2022-10-31T12:09:23.478Z,4.72
2022-10-31T12:12:01.224Z,2.42
2022-10-31T12:14:36.779Z,2.78
2022-10-31T12:17:19.057Z,2.60
2022-10-31T12:20:07.465Z,2.75
2022-10-31T12:25:27.364Z,1.92
2022-10-31T12:28:04.727Z,2.58
2022-10-31T12:30:50.250Z,2.90
2022-10-31T12:33:41.159Z,2.83
2022-10-31T12:36:50.607Z,3.00
2022-10-31T12:39:30.170Z,2.25
2022-10-31T12:42:37.828Z,2.90
2022-10-31T12:45:34.608Z,2.17
2022-10-31T12:48:01.254Z,3.25
2022-10-31T12:50:44.331Z,3.55
2022-10-31T12:53:51.064Z,3.45
2022-10-31T12:56:39.794Z,3.35
2022-10-31T12:59:38.637Z,2.92
2022-10-31T13:02:21.039Z,2.75
2022-10-31T13:05:05.724Z,2.50
2022-10-31T13:07:44.464Z,2.65
2022-10-31T13:10:29.122Z,2.65
2022-10-31T13:13:03.307Z,2.85
2022-10-31T13:15:34.344Z,2.97
2022-10-31T13:18:06.940Z,2.38
2022-10-31T13:20:42.724Z,3.13
2022-10-31T13:23:49.202Z,2.97
2022-10-31T13:26:23.611Z,3.50
2022-10-31T13:29:04.202Z,2.15
2022-10-31T13:31:31.009Z,3.28
2022-10-31T13:34:04.573Z,2.45
2022-10-31T13:36:38.031Z,2.78
2022-10-31T13:39:21.804Z,2.90
2022-10-31T13:42:11.425Z,3.28
2022-10-31T13:44:40.954Z,2.63
2022-10-31T13:47:37.172Z,3.17
2022-10-31T13:50:24.924Z,2.60
2022-10-31T13:52:51.843Z,2.65
2022-10-31T13:55:38.907Z,3.17
2022-10-31T13:58:20.917Z,3.47
2022-10-31T14:00:58.762Z,3.50
2022-10-31T14:03:57.456Z,3.60
2022-10-31T14:06:14.817Z,3.80
2022-10-31T14:08:51.223Z,3.25
2022-10-31T14:11:25.151Z,2.80
2022-10-31T14:13:52.043Z,3.58
2022-10-31T14:16:23.891Z,3.03
2022-10-31T14:19:00.036Z,2.88
2022-10-31T14:21:31.233Z,3.28
2022-10-31T14:23:58.396Z,2.95
2022-10-31T14:29:27.740Z,2.88
2022-10-31T14:32:19.098Z,3.03
2022-10-31T14:34:51.706Z,2.67
2022-10-31T14:37:26.998Z,2.60
2022-10-31T14:40:02.615Z,2.78
2022-10-31T14:43:00.095Z,2.78
2022-10-31T14:45:52.007Z,4.15
2022-10-31T14:48:47.185Z,4.18
2022-10-31T14:51:25.931Z,3.47
2022-10-31T14:53:55.509Z,3.55
2022-10-31T14:56:33.106Z,3.47
2022-10-31T14:59:12.882Z,3.10
2022-10-31T15:01:40.915Z,2.75
2022-10-31T15:04:23.468Z,2.75
2022-10-31T15:07:06.509Z,3.78
2022-10-31T15:09:35.086Z,4.03
2022-10-31T15:12:17.844Z,4.47
2022-10-31T15:14:44.543Z,3.67
2022-10-31T15:17:12.966Z,4.47
2022-10-31T15:19:40.181Z,3.95
2022-10-31T15:24:36.706Z,4.10
2022-10-31T15:27:05.317Z,3.60
2022-10-31T15:29:32.439Z,3.47
2022-10-31T15:32:01.851Z,3.80
2022-10-31T15:34:45.284Z,5.10
2022-10-31T15:37:17.468Z,5.05
2022-10-31T15:39:45.590Z,4.38
2022-10-31T15:42:33.480Z,5.65
2022-10-31T15:45:16.990Z,4.32
2022-10-31T15:47:53.825Z,3.97
2022-10-31T15:50:41.312Z,4.20
2022-10-31T15:53:18.799Z,3.83
2022-10-31T15:56:00.208Z,4.63
2022-10-31T15:58:28.085Z,3.60
2022-10-31T16:01:06.246Z,3.72
2022-10-31T16:03:34.823Z,4.07
2022-10-31T16:06:05.121Z,3.20
2022-10-31T16:08:31.773Z,4.57
2022-10-31T16:11:07.545Z,3.20
2022-10-31T16:13:42.292Z,5.57
2022-10-31T16:19:06.528Z,5.55
2022-10-31T16:21:37.368Z,8.30
2022-10-31T16:24:16.891Z,11.45
2022-10-31T16:26:49.426Z,12.32
2022-10-31T16:29:40.663Z,14.60
2022-10-31T16:32:36.785Z,18.45
2022-10-31T16:35:10.217Z,17.90
2022-10-31T16:37:41.476Z,16.55
2022-10-31T16:40:11.215Z,12.05
2022-10-31T16:42:37.923Z,12.20
2022-10-31T16:45:07.131Z,10.77
2022-10-31T16:47:33.803Z,9.25
2022-10-31T16:50:01.347Z,8.60
2022-10-31T16:52:31.492Z,8.15
2022-10-31T16:55:01.959Z,6.88
2022-10-31T16:57:31.660Z,7.55
2022-10-31T16:59:58.689Z,7.80
2022-10-31T17:02:25.794Z,7.15
2022-10-31T17:07:23.686Z,9.07
2022-10-31T17:09:50.434Z,11.75
2022-10-31T17:12:21.408Z,9.98
2022-10-31T17:14:51.120Z,11.45
2022-10-31T17:17:17.795Z,9.38
2022-10-31T17:19:44.475Z,11.43
2022-10-31T17:22:15.018Z,11.00
2022-10-31T17:24:41.702Z,11.02
2022-10-31T17:27:08.437Z,11.95
2022-10-31T17:29:35.370Z,9.82
2022-10-31T17:32:03.766Z,8.68
2022-10-31T17:34:30.965Z,6.40
2022-10-31T17:36:57.659Z,10.23
2022-10-31T17:39:24.352Z,8.88
2022-10-31T17:41:52.397Z,7.43
2022-10-31T17:44:19.240Z,6.72
2022-10-31T17:46:45.952Z,8.27
2022-10-31T17:49:12.807Z,11.02
2022-10-31T17:51:39.544Z,7.53
2022-10-31T17:54:06.958Z,8.75
2022-10-31T17:59:00.278Z,6.72
2022-10-31T18:01:27.131Z,5.47
2022-10-31T18:03:53.873Z,4.63
2022-10-31T18:06:20.657Z,6.40
2022-10-31T18:08:47.396Z,9.38
2022-10-31T18:11:17.442Z,8.73
2022-10-31T18:13:44.146Z,7.45
2022-10-31T18:16:12.806Z,7.22
2022-10-31T18:18:40.011Z,4.28
2022-10-31T18:21:07.074Z,4.88
2022-10-31T18:23:34.050Z,9.50
2022-10-31T18:26:00.727Z,11.70
2022-10-31T18:28:27.453Z,11.55
2022-10-31T18:30:54.159Z,13.75
2022-10-31T18:33:20.843Z,10.80
2022-10-31T18:35:47.648Z,16.80
2022-10-31T18:38:14.523Z,17.20
2022-10-31T18:40:41.273Z,16.42
2022-10-31T18:43:08.165Z,15.73
2022-10-31T18:45:46.641Z,11.80
2022-10-31T18:48:15.362Z,11.35
2022-10-31T18:50:42.645Z,7.70
2022-10-31T18:55:43.990Z,6.32
2022-10-31T19:00:41.084Z,7.93
2022-10-31T19:03:07.788Z,8.35
2022-10-31T19:05:34.556Z,8.65
2022-10-31T19:08:01.270Z,10.95
2022-10-31T19:10:28.060Z,10.73
2022-10-31T19:12:54.876Z,10.10
2022-10-31T19:15:21.640Z,9.38
2022-10-31T19:17:48.354Z,7.47
2022-10-31T19:20:15.114Z,7.97
2022-10-31T19:22:41.786Z,8.13
2022-10-31T19:25:10.666Z,7.38
2022-10-31T19:27:37.962Z,7.82
2022-10-31T19:30:05.988Z,8.38
2022-10-31T19:32:32.985Z,7.40
2022-10-31T19:34:59.839Z,8.02
2022-10-31T19:37:26.614Z,6.85
2022-10-31T19:39:53.290Z,7.55
2022-10-31T19:42:20.199Z,7.95
2022-10-31T19:44:46.925Z,7.63
2022-10-31T19:47:13.636Z,8.18
2022-10-31T19:49:40.319Z,7.60
2022-10-31T19:52:07.033Z,10.57
2022-10-31T19:54:34.243Z,10.55
2022-10-31T19:57:00.932Z,9.32
2022-10-31T19:59:27.623Z,7.97
2022-10-31T20:01:54.390Z,7.90
2022-10-31T20:04:21.125Z,7.03
2022-10-31T20:06:47.811Z,7.38
2022-10-31T20:09:14.961Z,7.90
2022-10-31T20:11:43.793Z,12.85
2022-10-31T20:14:16.259Z,11.38
2022-10-31T20:16:44.167Z,13.75
2022-10-31T20:19:10.888Z,15.57
2022-10-31T20:21:40.040Z,9.32
2022-10-31T20:24:09.610Z,7.63
2022-10-31T20:26:39.000Z,7.35
2022-10-31T20:29:05.799Z,7.55
2022-10-31T20:31:34.873Z,6.72
2022-10-31T20:34:01.897Z,6.28
2022-10-31T20:36:29.547Z,6.53
2022-10-31T20:38:56.618Z,6.20
2022-10-31T20:41:23.330Z,6.47
2022-10-31T20:43:50.104Z,7.07
2022-10-31T20:46:27.015Z,6.28
2022-10-31T20:48:54.481Z,6.30
2022-10-31T20:51:24.753Z,5.57
2022-10-31T20:53:52.943Z,6.28
2022-10-31T20:56:21.875Z,5.05
2022-10-31T20:58:49.918Z,3.20
2022-10-31T21:01:22.516Z,3.80
2022-10-31T21:03:50.288Z,3.70
2022-10-31T21:06:18.476Z,6.03
2022-10-31T21:08:45.632Z,12.23
2022-10-31T21:11:16.054Z,12.48
2022-10-31T21:13:44.299Z,9.30
2022-10-31T21:16:13.655Z,8.38
2022-10-31T21:18:42.574Z,10.15
2022-10-31T21:21:15.155Z,9.98
2022-10-31T21:23:43.143Z,7.55
2022-10-31T21:26:21.928Z,7.18
2022-10-31T21:28:49.888Z,5.80
2022-10-31T21:31:18.039Z,5.38
2022-10-31T21:33:45.620Z,5.60
2022-10-31T21:36:12.739Z,5.03
2022-10-31T21:38:39.926Z,4.75
2022-10-31T21:41:11.969Z,4.97
2022-10-31T21:44:19.764Z,7.97
2022-10-31T21:46:47.998Z,5.55
2022-10-31T21:49:14.918Z,5.93
2022-10-31T21:51:43.961Z,6.40
2022-10-31T21:54:28.244Z,5.78
2022-10-31T21:56:56.476Z,6.53
2022-10-31T21:59:23.260Z,5.13
2022-10-31T22:01:50.627Z,5.20
2022-10-31T22:06:44.598Z,5.85
2022-10-31T22:09:13.558Z,5.57
2022-10-31T22:11:41.888Z,4.95
2022-10-31T22:14:12.766Z,5.88
2022-10-31T22:16:39.862Z,5.82
2022-10-31T22:19:07.694Z,6.05
2022-10-31T22:21:41.423Z,6.78
2022-10-31T22:24:09.077Z,6.22
2022-10-31T22:26:37.227Z,5.05
2022-10-31T22:29:07.001Z,4.68
2022-10-31T22:31:37.118Z,4.65
2022-10-31T22:34:03.835Z,4.22
2022-10-31T22:36:31.780Z,3.55
2022-10-31T22:38:59.273Z,4.20
2022-10-31T22:41:31.576Z,3.70
2022-10-31T22:43:58.925Z,4.80
2022-10-31T22:48:57.216Z,5.22
2022-10-31T22:51:26.623Z,4.25
2022-10-31T22:53:56.527Z,4.28
2022-10-31T22:56:26.413Z,4.60
2022-10-31T22:58:53.640Z,5.10
2022-10-31T23:01:22.899Z,4.50
2022-10-31T23:03:50.722Z,4.43
2022-10-31T23:06:25.408Z,4.13
2022-10-31T23:08:52.544Z,5.93
2022-10-31T23:11:28.249Z,4.78
2022-10-31T23:14:09.421Z,4.32
2022-10-31T23:16:37.177Z,4.68
2022-10-31T23:19:08.034Z,4.65
2022-10-31T23:21:55.262Z,4.35
2022-10-31T23:24:22.927Z,4.28
2022-10-31T23:27:08.791Z,4.25
2022-10-31T23:29:39.049Z,4.28
2022-10-31T23:32:09.462Z,4.45
2022-10-31T23:34:36.475Z,4.32
2022-10-31T23:37:03.337Z,4.00
2022-10-31T23:39:30.387Z,3.55
2022-10-31T23:41:57.120Z,4.15
2022-10-31T23:44:23.818Z,4.25
2022-10-31T23:46:50.558Z,3.30
2022-10-31T23:49:17.388Z,3.45
2022-10-31T23:51:44.146Z,4.15
2022-10-31T23:54:11.011Z,4.32
2022-10-31T23:56:37.687Z,3.17
2022-10-31T23:59:06.060Z,3.20
